createdAt,value
2019-05-02T00:02:59.884Z,1.57
2019-05-02T00:08:08.515Z,1.78
2019-05-02T00:13:17.372Z,1.68
2019-05-02T00:18:26.314Z,1.30
2019-05-02T00:23:35.194Z,1.23
2019-05-02T00:28:48.063Z,1.48
2019-05-02T00:33:52.522Z,1.44
2019-05-02T00:39:01.456Z,1.32
2019-05-02T00:44:11.039Z,1.38
2019-05-02T00:49:18.772Z,1.31
2019-05-02T00:54:27.690Z,1.47
2019-05-02T00:59:37.815Z,1.41
2019-05-02T01:04:45.090Z,1.34
2019-05-02T01:09:54.020Z,1.47
2019-05-02T01:15:08.061Z,1.52
2019-05-02T01:20:11.800Z,1.34
2019-05-02T01:25:20.655Z,1.62
2019-05-02T01:30:29.613Z,2.02
2019-05-02T01:35:38.468Z,2.30
2019-05-02T01:40:48.123Z,2.66
2019-05-02T01:45:55.947Z,2.85
2019-05-02T01:51:09.812Z,2.81
2019-05-02T01:56:13.353Z,2.62
2019-05-02T02:01:25.443Z,2.62
2019-05-02T02:06:24.201Z,2.53
2019-05-02T02:11:34.285Z,2.51
2019-05-02T02:16:41.870Z,2.79
2019-05-02T02:21:50.843Z,3.00
2019-05-02T02:26:59.727Z,2.90
2019-05-02T02:32:08.652Z,3.20
2019-05-02T02:37:17.487Z,3.13
2019-05-02T02:42:31.702Z,3.17
2019-05-02T02:47:34.943Z,2.90
2019-05-02T02:52:44.641Z,3.08
2019-05-02T02:57:52.242Z,2.85
2019-05-02T03:03:01.215Z,3.05
2019-05-02T03:08:10.095Z,3.56
2019-05-02T03:13:21.662Z,3.68
2019-05-02T03:18:27.449Z,3.60
2019-05-02T03:23:36.371Z,3.67
2019-05-02T03:28:45.264Z,3.86
2019-05-02T03:33:59.767Z,3.83
2019-05-02T03:39:13.283Z,3.93
2019-05-02T03:44:24.691Z,4.24
2019-05-02T03:49:13.251Z,4.12
2019-05-02T03:54:22.192Z,5.01
2019-05-02T03:59:39.157Z,5.39
2019-05-02T04:04:40.782Z,5.35
2019-05-02T04:09:42.019Z,5.04
2019-05-02T04:14:47.963Z,4.83
2019-05-02T04:19:56.834Z,5.33
2019-05-02T04:25:06.442Z,4.89
2019-05-02T04:30:14.521Z,4.57
2019-05-02T04:35:28.800Z,4.66
2019-05-02T04:40:34.819Z,4.41
2019-05-02T04:45:55.355Z,4.33
2019-05-02T04:50:51.561Z,4.63
2019-05-02T04:56:01.749Z,4.84
2019-05-02T05:01:05.461Z,4.30
2019-05-02T05:06:14.454Z,4.11
2019-05-02T05:11:24.963Z,4.26
2019-05-02T05:16:32.914Z,3.76
2019-05-02T05:21:34.648Z,3.95
2019-05-02T05:26:33.909Z,3.53
2019-05-02T05:31:42.048Z,3.11
2019-05-02T05:36:51.024Z,3.02
2019-05-02T05:41:59.892Z,3.14
2019-05-02T05:47:12.218Z,2.98
2019-05-02T05:52:18.125Z,2.86
2019-05-02T05:57:24.278Z,3.08
2019-05-02T06:02:50.079Z,2.96
2019-05-02T06:07:44.826Z,2.92
2019-05-02T06:12:50.363Z,2.82
2019-05-02T06:18:00.099Z,2.95
2019-05-02T06:23:07.740Z,4.54
2019-05-02T06:28:16.775Z,3.51
2019-05-02T06:33:25.993Z,3.03
2019-05-02T06:38:34.210Z,2.62
2019-05-02T06:43:46.714Z,2.73
2019-05-02T06:48:52.316Z,2.87
2019-05-02T06:53:59.984Z,2.72
2019-05-02T06:59:13.169Z,2.52
2019-05-02T07:04:22.245Z,2.42
2019-05-02T07:09:39.203Z,2.47
2019-05-02T07:14:34.239Z,2.43
2019-05-02T07:19:43.171Z,2.90
2019-05-02T07:24:52.062Z,2.32
2019-05-02T07:30:01.030Z,1.76
2019-05-02T07:35:09.896Z,2.08
2019-05-02T07:40:18.935Z,1.92
2019-05-02T07:45:27.735Z,1.67
2019-05-02T07:50:41.109Z,1.78
2019-05-02T07:55:45.146Z,1.66
2019-05-02T08:00:54.149Z,2.01
2019-05-02T08:06:03.042Z,1.94
2019-05-02T08:11:12.015Z,1.69
2019-05-02T08:16:22.389Z,2.34
2019-05-02T08:21:32.602Z,2.60
2019-05-02T08:26:39.502Z,3.03
2019-05-02T08:31:38.467Z,3.12
2019-05-02T08:36:47.559Z,3.43
2019-05-02T08:41:57.847Z,3.66
2019-05-02T08:47:18.127Z,3.14
2019-05-02T08:52:13.902Z,2.36
2019-05-02T08:57:23.827Z,1.72
2019-05-02T09:02:41.133Z,1.31
2019-05-02T09:07:42.471Z,1.10
2019-05-02T09:12:48.637Z,1.11
2019-05-02T09:17:57.529Z,0.94
2019-05-02T09:23:06.491Z,0.98
2019-05-02T09:28:17.145Z,0.87
2019-05-02T09:33:23.903Z,0.86
2019-05-02T09:38:32.973Z,0.92
2019-05-02T09:43:42.604Z,0.88
2019-05-02T09:48:51.958Z,0.85
2019-05-02T09:54:06.224Z,0.83
2019-05-02T09:59:06.154Z,0.84
2019-05-02T10:04:11.857Z,0.93
2019-05-02T10:09:22.878Z,0.83
2019-05-02T10:14:27.059Z,0.89
2019-05-02T10:19:35.943Z,0.66
2019-05-02T10:24:44.917Z,0.88
2019-05-02T10:29:56.897Z,1.02
2019-05-02T10:35:02.293Z,0.75
2019-05-02T10:40:13.412Z,0.63
2019-05-02T10:45:19.765Z,0.61
2019-05-02T10:50:28.635Z,0.64
2019-05-02T10:55:37.594Z,0.85
2019-05-02T11:00:46.524Z,0.98
2019-05-02T11:05:57.891Z,1.22
2019-05-02T11:11:06.101Z,1.15
2019-05-02T11:16:12.567Z,1.17
2019-05-02T11:21:22.947Z,1.12
2019-05-02T11:26:29.878Z,1.30
2019-05-02T11:31:38.752Z,1.34
2019-05-02T11:36:47.816Z,1.26
2019-05-02T11:41:56.736Z,1.39
2019-05-02T11:47:05.758Z,1.29
2019-05-02T11:52:14.659Z,1.39
2019-05-02T11:57:28.307Z,0.89
2019-05-02T12:02:32.110Z,1.35
2019-05-02T12:07:41.775Z,1.28
2019-05-02T12:12:49.561Z,1.35
2019-05-02T12:17:58.514Z,1.31
2019-05-02T12:23:09.073Z,1.39
2019-05-02T12:28:15.958Z,1.04
2019-05-02T12:33:33.504Z,1.19
2019-05-02T12:38:32.467Z,1.06
2019-05-02T12:43:41.689Z,0.95
2019-05-02T12:48:51.348Z,1.01
2019-05-02T12:53:58.204Z,0.77
2019-05-02T12:59:07.182Z,0.76
2019-05-02T13:04:16.103Z,0.77
2019-05-02T13:09:25.127Z,0.73
2019-05-02T13:14:34.084Z,0.96
2019-05-02T13:19:55.658Z,0.94
2019-05-02T13:24:54.894Z,1.06
2019-05-02T13:30:00.435Z,1.06
2019-05-02T13:35:09.393Z,1.09
2019-05-02T13:40:18.645Z,0.94
2019-05-02T13:45:27.504Z,1.55
2019-05-02T13:50:36.474Z,1.42
2019-05-02T13:55:45.376Z,1.30
2019-05-02T14:00:54.350Z,1.69
2019-05-02T14:06:03.257Z,1.29
2019-05-02T14:11:12.774Z,1.49
2019-05-02T14:16:22.159Z,1.27
2019-05-02T14:21:29.230Z,1.16
2019-05-02T14:26:38.122Z,1.16
2019-05-02T14:31:47.506Z,1.16
2019-05-02T14:36:59.390Z,1.44
2019-05-02T14:42:04.909Z,1.25
2019-05-02T14:47:18.254Z,1.21
2019-05-02T14:52:22.756Z,1.37
2019-05-02T14:57:32.653Z,1.78
2019-05-02T15:02:47.513Z,1.35
2019-05-02T15:07:48.600Z,1.33
2019-05-02T15:12:59.666Z,1.48
2019-05-02T15:18:07.936Z,1.70
2019-05-02T15:23:19.374Z,1.76
2019-05-02T15:28:23.051Z,1.44
2019-05-02T15:33:32.231Z,1.41
2019-05-02T15:38:42.907Z,1.59
2019-05-02T15:43:49.433Z,1.85
2019-05-02T15:49:01.871Z,1.80
2019-05-02T15:54:08.855Z,1.99
2019-05-02T15:59:15.267Z,1.68
2019-05-02T16:04:25.640Z,1.96
2019-05-02T16:09:32.981Z,1.74
2019-05-02T16:14:42.459Z,2.03
2019-05-02T16:19:52.341Z,2.21
2019-05-02T16:24:58.433Z,3.06
2019-05-02T16:30:08.553Z,2.72
2019-05-02T16:35:17.265Z,3.38
2019-05-02T16:40:31.832Z,3.14
2019-05-02T16:45:27.136Z,4.67
2019-05-02T16:50:36.880Z,15.76
2019-05-02T16:55:44.640Z,4.10
2019-05-02T17:00:53.557Z,2.40
2019-05-02T17:06:08.496Z,2.67
2019-05-02T17:11:04.154Z,2.26
2019-05-02T17:16:16.970Z,2.03
2019-05-02T17:21:22.155Z,2.84
2019-05-02T17:26:29.318Z,2.71
2019-05-02T17:31:38.221Z,2.30
2019-05-02T17:36:47.214Z,2.48
2019-05-02T17:41:56.168Z,2.79
2019-05-02T17:47:05.182Z,3.91
2019-05-02T17:52:21.103Z,3.72
2019-05-02T17:57:23.063Z,3.11
2019-05-02T18:02:31.696Z,3.09
2019-05-02T18:07:38.967Z,3.22
2019-05-02T18:12:56.034Z,2.83
2019-05-02T18:17:59.891Z,3.07
2019-05-02T18:23:05.969Z,2.94
2019-05-02T18:28:21.112Z,2.82
2019-05-02T18:33:22.702Z,2.88
2019-05-02T18:38:30.175Z,2.97
2019-05-02T18:43:43.586Z,2.98
2019-05-02T18:48:49.147Z,3.56
2019-05-02T18:53:58.059Z,2.95
2019-05-02T18:59:04.683Z,3.09
2019-05-02T19:04:13.625Z,3.22
2019-05-02T19:09:28.627Z,2.49
2019-05-02T19:14:32.730Z,3.37
2019-05-02T19:19:41.777Z,4.03
2019-05-02T19:24:48.302Z,5.34
2019-05-02T19:29:57.290Z,4.92
2019-05-02T19:35:07.002Z,3.56
2019-05-02T19:40:14.915Z,3.40
2019-05-02T19:45:23.115Z,3.01
2019-05-02T19:50:38.558Z,2.92
2019-05-02T19:55:42.954Z,3.12
2019-05-02T20:00:49.473Z,3.24
2019-05-02T20:06:02.492Z,3.08
2019-05-02T20:11:07.301Z,2.86
2019-05-02T20:16:16.214Z,3.19
2019-05-02T20:21:27.941Z,2.82
2019-05-02T20:26:33.666Z,3.16
2019-05-02T20:31:42.851Z,3.37
2019-05-02T20:36:51.918Z,3.73
2019-05-02T20:42:02.557Z,3.39
2019-05-02T20:47:09.221Z,3.19
2019-05-02T20:52:18.206Z,3.87
2019-05-02T20:57:27.074Z,3.46
2019-05-02T21:02:36.006Z,3.26
2019-05-02T21:07:44.897Z,3.24
2019-05-02T21:12:53.803Z,3.03
2019-05-02T21:18:02.677Z,3.29
2019-05-02T21:23:11.638Z,3.17
2019-05-02T21:28:22.533Z,3.30
2019-05-02T21:33:29.432Z,3.51
2019-05-02T21:38:38.325Z,3.18
2019-05-02T21:43:47.259Z,3.15
2019-05-02T21:48:56.149Z,3.13
2019-05-02T21:54:05.109Z,2.83
2019-05-02T21:59:13.963Z,2.98
2019-05-02T22:04:22.926Z,2.62
2019-05-02T22:09:32.336Z,2.26
2019-05-02T22:14:39.595Z,2.24
2019-05-02T22:19:48.496Z,2.52
2019-05-02T22:24:57.439Z,2.35
2019-05-02T22:30:06.299Z,1.96
2019-05-02T22:35:15.395Z,1.63
2019-05-02T22:40:24.223Z,1.83
2019-05-02T22:45:33.642Z,1.71
2019-05-02T22:50:42.734Z,1.77
2019-05-02T22:55:51.852Z,2.08
2019-05-02T23:01:01.631Z,2.02
2019-05-02T23:06:09.013Z,2.32
2019-05-02T23:11:17.886Z,2.02
2019-05-02T23:16:27.280Z,1.82
2019-05-02T23:21:36.082Z,2.03
2019-05-02T23:26:45.056Z,2.45
2019-05-02T23:31:53.938Z,2.19
2019-05-02T23:37:02.863Z,1.72
2019-05-02T23:42:13.403Z,1.92
2019-05-02T23:47:22.307Z,1.85
2019-05-02T23:52:29.198Z,1.66
2019-05-02T23:57:38.122Z,1.79
